ZPPP/KMG METAR and TAF weather

Enter ICAO airport designator
Station Type Date Time Source
ZPPP METAR 2019/12/07 05:00 UTC NOAA

ZPPP 070500Z 24006MPS 220V280 CAVOK 10/M01 Q1029 NOSIG


Station Type Date Time Source
ZPPP Decoded METAR 2019/12/07 05:00 UTC NOAA

Kunming, China (ZPPP) 25-01N 102-41E 1892M
Dec 07, 2019 - 12:00 AM EST / 2019.12.07 0500 UTC
Wind: from the WSW (240 degrees) at 13 MPH (12 KT) (direction variable):0
Visibility: greater than 7 mile(s):0
Temperature: 50 F (10 C)
Dew Point: 30 F (-1 C)
Relative Humidity: 46%
Pressure (altimeter): 30.39 in. Hg (1029 hPa)
ob: ZPPP 070500Z 24006MPS 220V280 CAVOK 10/M01 Q1029 NOSIG
cycle: 5

Station Type Date Time Source
ZPPP TAF 2019/12/07 06:03 UTC NOAA

TAF ZPPP 070105Z 0706/0806 22004MPS 9999 FEW026 TX14/0708Z TNM03/21Z

Example: see airport list